Time;durP1;ratioP1;P1;durP2;ratioP2;P2;SDS_P1;SDS_P2;PMS_P1;PMS_P2;Temp;Humidity;BMP_temperature;BMP_pressure;BME280_temperature;BME280_humidity;BME280_pressure;Samples;Min_cycle;Max_cycle;Signal;HPM_P1;HPM_P2
2021/01/09 00:01:23;;;;;;;14.93;13.43;;;;;;;-0.58;89.58;100767.50;5059773;28;20203;-77
2021/01/09 00:03:49;;;;;;;15.87;14.10;;;;;;;-0.56;89.36;100765.84;5076109;28;20240;-78
2021/01/09 00:06:14;;;;;;;14.97;13.37;;;;;;;-0.58;90.35;100764.94;5061382;28;20228;-78
2021/01/09 00:08:40;;;;;;;16.73;15.03;;;;;;;-0.72;90.54;100761.94;5076106;28;20254;-76
2021/01/09 00:11:07;;;;;;;16.30;14.27;;;;;;;-0.77;90.73;100770.28;5061791;28;20227;-77
2021/01/09 00:13:33;;;;;;;16.50;14.90;;;;;;;-0.82;91.07;100771.00;5072011;28;20212;-77
2021/01/09 00:15:59;;;;;;;17.23;15.43;;;;;;;-0.73;91.40;100769.56;5061275;28;20207;-78
2021/01/09 00:18:25;;;;;;;16.70;15.10;;;;;;;-0.97;91.65;100769.63;5077723;28;20723;-78
2021/01/09 00:20:51;;;;;;;20.23;16.33;;;;;;;-1.09;92.00;100776.13;5061094;28;20226;-78
2021/01/09 00:23:17;;;;;;;20.43;17.30;;;;;;;-1.00;92.14;100778.09;5060772;28;20226;-77
2021/01/09 00:25:43;;;;;;;19.17;15.63;;;;;;;-0.95;92.25;100774.00;5062531;28;20290;-77
2021/01/09 00:28:08;;;;;;;16.40;14.80;;;;;;;-1.06;92.01;100776.19;5045446;28;20260;-77
2021/01/09 00:30:35;;;;;;;21.23;16.57;;;;;;;-1.15;92.33;100778.47;5047039;28;20889;-76
2021/01/09 00:33:01;;;;;;;19.30;17.20;;;;;;;-1.12;92.28;100782.81;5074229;28;20208;-76
2021/01/09 00:35:27;;;;;;;19.83;17.63;;;;;;;-1.11;92.37;100781.97;5061201;28;20232;-76
2021/01/09 00:37:53;;;;;;;20.57;17.13;;;;;;;-1.07;92.65;100782.16;5073922;28;20247;-77
2021/01/09 00:40:18;;;;;;;20.80;17.30;;;;;;;-1.11;92.71;100776.84;5062624;28;20256;-77
2021/01/09 00:42:47;;;;;;;19.60;17.47;;;;;;;-1.03;92.48;100786.56;5069145;28;20212;-77
2021/01/09 00:45:13;;;;;;;20.90;17.57;;;;;;;-0.90;92.09;100782.72;5063785;28;20298;-77
2021/01/09 00:47:39;;;;;;;21.03;16.40;;;;;;;-0.89;91.69;100792.16;5072091;28;20223;-78
2021/01/09 00:50:06;;;;;;;20.47;17.23;;;;;;;-0.88;91.60;100796.44;5063573;28;20795;-76
2021/01/09 00:52:32;;;;;;;19.37;16.97;;;;;;;-0.92;91.42;100799.72;5072597;28;20223;-78
2021/01/09 00:54:58;;;;;;;18.03;16.13;;;;;;;-0.91;91.28;100800.59;5064955;28;20205;-75
2021/01/09 00:57:24;;;;;;;19.77;17.67;;;;;;;-0.93;91.08;100804.78;5051354;28;20668;-75
2021/01/09 00:59:50;;;;;;;23.20;18.03;;;;;;;-0.90;91.02;100805.75;5061220;28;20237;-77
2021/01/09 01:02:16;;;;;;;18.03;16.23;;;;;;;-0.86;90.65;100804.19;5056980;28;20224;-76
2021/01/09 01:04:43;;;;;;;19.13;17.13;;;;;;;-0.86;90.43;100812.72;5066872;28;20667;-76
2021/01/09 01:07:09;;;;;;;18.83;16.83;;;;;;;-0.79;90.48;100806.13;5063956;28;20272;-76
2021/01/09 01:09:35;;;;;;;18.30;16.53;;;;;;;-0.84;90.22;100807.66;5053743;28;20710;-76
2021/01/09 01:12:02;;;;;;;18.83;16.43;;;;;;;-0.72;90.02;100812.31;5050234;28;20242;-76
2021/01/09 01:14:28;;;;;;;19.60;16.13;;;;;;;-0.80;89.97;100820.63;5050882;28;20658;-76
2021/01/09 01:16:54;;;;;;;17.17;15.47;;;;;;;-0.77;90.10;100808.72;5052982;28;20204;-76
2021/01/09 01:19:20;;;;;;;16.27;14.73;;;;;;;-0.66;89.66;100815.94;5051478;28;20221;-76
2021/01/09 01:21:46;;;;;;;15.83;14.27;;;;;;;-0.58;89.41;100816.19;5047554;28;20204;-76
2021/01/09 01:24:12;;;;;;;15.53;13.90;;;;;;;-0.57;89.45;100827.34;5053159;28;20727;-76
2021/01/09 01:26:38;;;;;;;14.97;13.57;;;;;;;-0.63;89.31;100826.31;5046357;28;20286;-76
2021/01/09 01:29:04;;;;;;;14.77;13.37;;;;;;;-0.66;89.24;100822.78;5051878;28;20616;-76
2021/01/09 01:31:30;;;;;;;14.73;13.33;;;;;;;-0.60;89.30;100828.09;5045843;28;20719;-76
2021/01/09 01:33:56;;;;;;;14.33;12.93;;;;;;;-0.56;89.01;100822.25;5053375;28;20208;-77
2021/01/09 01:36:22;;;;;;;14.70;13.30;;;;;;;-0.63;89.32;100820.31;5053531;28;20716;-77
2021/01/09 01:38:48;;;;;;;15.07;13.53;;;;;;;-0.75;89.55;100828.47;5054344;28;20667;-77
2021/01/09 01:41:14;;;;;;;15.43;13.43;;;;;;;-0.77;89.69;100831.78;5053001;28;20578;-77
2021/01/09 01:43:40;;;;;;;15.10;13.23;;;;;;;-0.76;89.50;100833.56;5053908;28;20342;-77
2021/01/09 01:46:09;;;;;;;15.87;13.33;;;;;;;-0.73;89.67;100838.75;5052812;28;20556;-77
2021/01/09 01:48:36;;;;;;;14.17;12.70;;;;;;;-0.60;89.70;100836.66;5049545;28;20221;-77
2021/01/09 01:51:02;;;;;;;14.20;12.80;;;;;;;-0.51;89.16;100838.66;5053618;28;20227;-78
2021/01/09 01:53:29;;;;;;;14.40;13.10;;;;;;;-0.54;88.91;100841.13;5054100;28;20200;-76
2021/01/09 01:55:56;;;;;;;14.43;13.03;;;;;;;-0.61;89.26;100841.75;5052033;28;20663;-77
2021/01/09 01:58:22;;;;;;;14.17;12.87;;;;;;;-0.75;89.54;100843.88;5048109;28;20207;-77
2021/01/09 02:00:49;;;;;;;13.77;12.47;;;;;;;-0.78;89.59;100853.13;5049486;28;20250;-77
2021/01/09 02:03:16;;;;;;;14.20;12.77;;;;;;;-0.74;89.73;100855.84;5047542;28;20547;-75
2021/01/09 02:05:46;;;;;;;12.97;11.57;;;;;;;-0.80;89.75;100855.63;5050971;28;20250;-77
2021/01/09 02:08:14;;;;;;;13.00;11.43;;;;;;;-0.83;89.99;100853.84;5052824;28;20220;-78
2021/01/09 02:10:44;;;;;;;12.00;10.80;;;;;;;-0.87;89.82;100862.25;5054185;28;20239;-80
2021/01/09 02:13:20;;;;;;;11.83;10.63;;;;;;;-0.89;89.75;100863.00;5049481;28;20200;-79
2021/01/09 02:15:49;;;;;;;12.70;11.43;;;;;;;-0.87;89.90;100861.41;5052987;28;20288;-78
2021/01/09 02:18:17;;;;;;;12.63;11.33;;;;;;;-0.82;89.56;100867.53;5053822;28;20593;-79
2021/01/09 02:20:45;;;;;;;13.13;11.93;;;;;;;-0.86;89.86;100869.09;5053776;28;20238;-78
2021/01/09 02:23:12;;;;;;;12.70;11.40;;;;;;;-0.81;89.94;100869.28;5052523;28;20338;-76
2021/01/09 02:25:37;;;;;;;13.70;12.30;;;;;;;-0.89;89.67;100866.47;5050521;28;20560;-77
2021/01/09 02:28:04;;;;;;;13.53;12.23;;;;;;;-0.90;90.04;100877.50;5046886;28;20310;-77
2021/01/09 02:30:33;;;;;;;13.40;12.10;;;;;;;-0.85;89.69;100873.44;5048281;28;20217;-75
2021/01/09 02:33:02;;;;;;;16.33;13.77;;;;;;;-0.91;89.66;100864.66;5052520;28;20200;-77
2021/01/09 02:35:29;;;;;;;15.37;13.77;;;;;;;-0.95;90.20;100866.25;5051706;28;20205;-76
2021/01/09 02:37:55;;;;;;;17.07;15.37;;;;;;;-0.98;90.04;100868.69;5052775;28;20201;-76
2021/01/09 02:40:22;;;;;;;17.33;15.20;;;;;;;-0.95;90.26;100865.34;5050675;28;20228;-76
2021/01/09 02:42:48;;;;;;;17.20;15.30;;;;;;;-0.91;90.02;100865.53;5071474;28;20265;-76
2021/01/09 02:45:14;;;;;;;16.33;14.73;;;;;;;-0.95;90.29;100868.81;5061271;28;20205;-75
2021/01/09 02:47:40;;;;;;;17.83;15.83;;;;;;;-0.92;90.20;100868.91;5066385;28;20209;-76
2021/01/09 02:50:10;;;;;;;17.83;16.10;;;;;;;-0.89;89.91;100870.69;5062068;28;20247;-76
2021/01/09 02:52:36;;;;;;;19.70;16.73;;;;;;;-0.94;90.28;100869.69;5066139;28;20196;-75
2021/01/09 02:55:02;;;;;;;20.83;17.90;;;;;;;-0.88;90.33;100867.31;5062692;28;20334;-76
2021/01/09 02:57:29;;;;;;;19.20;17.27;;;;;;;-0.85;90.13;100875.13;5051471;28;20222;-78
2021/01/09 02:59:55;;;;;;;21.47;16.93;;;;;;;-0.78;89.80;100883.88;5056133;28;20225;-77
2021/01/09 03:02:21;;;;;;;20.67;18.23;;;;;;;-0.81;90.05;100877.84;5071467;28;20204;-75
2021/01/09 03:04:47;;;;;;;18.00;16.17;;;;;;;-0.85;89.69;100886.25;5064562;28;20343;-75
2021/01/09 03:07:12;;;;;;;19.40;16.80;;;;;;;-0.86;89.70;100887.06;5062745;28;20315;-75
2021/01/09 03:09:39;;;;;;;20.90;17.90;;;;;;;-0.83;90.26;100892.28;5066226;28;20305;-75
2021/01/09 03:12:06;;;;;;;24.63;17.87;;;;;;;-0.94;90.00;100888.47;5055607;28;20254;-77
2021/01/09 03:14:33;;;;;;;22.57;17.67;;;;;;;-0.96;90.26;100895.25;5066649;28;20666;-78
2021/01/09 03:16:59;;;;;;;21.17;18.20;;;;;;;-0.98;90.39;100890.91;5063475;28;20207;-76
2021/01/09 03:19:25;;;;;;;20.93;17.47;;;;;;;-0.89;90.75;100894.66;5071690;28;20263;-78
2021/01/09 03:21:51;;;;;;;22.90;16.53;;;;;;;-0.86;90.39;100904.13;5063621;28;20235;-76
2021/01/09 03:24:17;;;;;;;20.47;18.27;;;;;;;-0.81;89.89;100902.59;5036332;28;20203;-77
2021/01/09 03:26:43;;;;;;;19.53;17.03;;;;;;;-0.74;90.19;100904.53;5052881;28;20213;-76
2021/01/09 03:29:09;;;;;;;24.00;18.90;;;;;;;-0.78;90.01;100905.25;5063319;28;20296;-78
2021/01/09 03:31:35;;;;;;;19.30;17.30;;;;;;;-0.70;89.88;100908.09;5057830;28;20297;-76
2021/01/09 03:34:01;;;;;;;19.90;17.67;;;;;;;-0.88;90.20;100904.06;5037115;28;20215;-79
2021/01/09 03:36:27;;;;;;;19.80;16.70;;;;;;;-0.91;90.55;100906.53;5059134;28;20197;-78
2021/01/09 03:38:53;;;;;;;20.90;18.73;;;;;;;-0.90;90.50;100905.69;5075357;28;20608;-77
2021/01/09 03:41:19;;;;;;;21.17;17.53;;;;;;;-0.84;90.63;100911.03;5059477;28;20249;-76
2021/01/09 03:43:45;;;;;;;18.63;16.73;;;;;;;-0.88;90.10;100909.19;5075008;28;20203;-77
2021/01/09 03:46:11;;;;;;;23.17;18.13;;;;;;;-0.94;90.16;100908.97;5062018;28;20242;-78
2021/01/09 03:48:37;;;;;;;20.53;17.27;;;;;;;-0.88;90.18;100910.88;5074682;28;20314;-77
2021/01/09 03:51:03;;;;;;;20.83;18.13;;;;;;;-0.97;90.19;100915.69;5062457;28;20223;-75
2021/01/09 03:53:29;;;;;;;18.80;16.80;;;;;;;-0.97;90.13;100913.13;5074879;28;20636;-75
2021/01/09 03:55:56;;;;;;;23.60;18.47;;;;;;;-0.99;90.14;100915.66;5053564;28;20617;-75
2021/01/09 03:58:22;;;;;;;18.33;16.43;;;;;;;-0.95;89.94;100906.34;5058750;28;20572;-77
2021/01/09 04:00:47;;;;;;;19.10;17.10;;;;;;;-0.98;90.09;100909.69;5062132;28;20229;-76
2021/01/09 04:03:13;;;;;;;18.53;16.43;;;;;;;-0.91;89.75;100911.66;5074126;28;20287;-78
2021/01/09 04:05:40;;;;;;;18.47;16.47;;;;;;;-0.94;89.65;100913.25;5060636;28;20678;-77
2021/01/09 04:08:06;;;;;;;24.90;17.03;;;;;;;-0.96;89.61;100913.19;5073029;28;20270;-75
2021/01/09 04:10:32;;;;;;;17.53;15.77;;;;;;;-0.94;89.67;100913.25;5062511;28;20224;-75
2021/01/09 04:12:58;;;;;;;19.20;16.87;;;;;;;-0.89;89.51;100915.16;5065859;28;20211;-75
2021/01/09 04:15:24;;;;;;;18.90;16.33;;;;;;;-0.95;89.57;100922.63;5061638;28;20204;-76
2021/01/09 04:17:50;;;;;;;17.00;15.40;;;;;;;-0.92;89.43;100912.47;5074088;28;20207;-78
2021/01/09 04:20:16;;;;;;;17.20;15.40;;;;;;;-0.87;89.27;100915.22;5068599;28;20277;-78
2021/01/09 04:22:43;;;;;;;15.27;13.77;;;;;;;-0.86;89.05;100914.38;5074324;28;20200;-78
2021/01/09 04:25:10;;;;;;;16.20;14.50;;;;;;;-0.83;88.87;100915.34;5072460;28;20208;-78
2021/01/09 04:27:35;;;;;;;15.53;13.87;;;;;;;-0.89;88.81;100920.28;5053134;28;20197;-77
2021/01/09 04:30:01;;;;;;;16.17;14.47;;;;;;;-0.87;89.07;100922.91;5063085;28;20228;-77
2021/01/09 04:32:29;;;;;;;17.00;15.30;;;;;;;-0.83;88.67;100924.75;5067177;28;20216;-77
2021/01/09 04:34:55;;;;;;;15.03;13.63;;;;;;;-0.89;88.99;100924.50;5066064;28;20216;-77
2021/01/09 04:37:21;;;;;;;15.53;13.97;;;;;;;-0.90;89.25;100922.78;5067336;28;20302;-78
2021/01/09 04:39:48;;;;;;;17.10;15.40;;;;;;;-0.95;89.58;100927.75;5065532;28;20247;-78
2021/01/09 04:42:14;;;;;;;16.70;15.00;;;;;;;-0.92;89.17;100930.41;5077634;28;20212;-78
2021/01/09 04:44:40;;;;;;;16.30;14.70;;;;;;;-0.97;89.29;100931.94;5070899;28;20780;-78
2021/01/09 04:47:08;;;;;;;18.47;16.07;;;;;;;-1.02;89.64;100931.75;5064010;28;20219;-78
2021/01/09 04:49:34;;;;;;;17.80;14.83;;;;;;;-1.02;89.83;100939.44;5068896;28;20226;-77
2021/01/09 04:52:02;;;;;;;14.67;13.17;;;;;;;-1.00;89.67;100942.06;5062753;28;20215;-77
2021/01/09 04:54:29;;;;;;;14.43;12.93;;;;;;;-1.03;89.72;100942.84;5069341;28;20208;-78
2021/01/09 04:56:56;;;;;;;15.20;13.67;;;;;;;-1.01;89.32;100942.91;5053252;28;20204;-77
2021/01/09 04:59:23;;;;;;;13.30;12.03;;;;;;;-0.98;89.64;100943.00;5062186;28;20220;-77
2021/01/09 05:01:51;;;;;;;12.63;11.43;;;;;;;-0.98;89.67;100942.13;5065219;28;20214;-78
2021/01/09 05:04:19;;;;;;;13.70;12.30;;;;;;;-1.02;89.48;100947.13;5035145;28;20209;-79
2021/01/09 05:06:46;;;;;;;13.47;12.17;;;;;;;-0.98;90.08;100947.25;5067420;28;20265;-78
2021/01/09 05:09:13;;;;;;;13.27;11.90;;;;;;;-0.95;89.84;100953.38;5071534;28;20250;-78
2021/01/09 05:11:41;;;;;;;12.67;11.47;;;;;;;-1.03;89.79;100950.53;5054996;28;20198;-78
2021/01/09 05:14:09;;;;;;;12.50;11.20;;;;;;;-1.05;90.12;100952.16;5074210;28;20211;-78
2021/01/09 05:16:36;;;;;;;12.83;11.53;;;;;;;-1.05;90.31;100953.81;5059755;28;20207;-78
2021/01/09 05:19:03;;;;;;;11.90;10.70;;;;;;;-1.01;90.29;100963.41;5073115;28;20258;-78
2021/01/09 05:21:32;;;;;;;12.23;10.63;;;;;;;-1.05;90.28;100959.84;5057685;28;20208;-77
2021/01/09 05:24:00;;;;;;;11.13;10.03;;;;;;;-1.04;90.41;100953.03;5072901;28;20701;-77
2021/01/09 05:26:26;;;;;;;12.83;11.53;;;;;;;-0.97;89.84;100957.56;5052064;28;20204;-77
2021/01/09 05:28:54;;;;;;;11.30;10.20;;;;;;;-0.99;89.96;100956.66;5046459;28;20330;-75
2021/01/09 05:31:22;;;;;;;11.57;10.47;;;;;;;-1.00;89.77;100954.88;5060261;28;20208;-75
2021/01/09 05:33:49;;;;;;;12.97;10.43;;;;;;;-0.97;89.79;100957.56;5073392;28;20246;-76
2021/01/09 05:36:16;;;;;;;12.57;11.27;;;;;;;-0.97;89.09;100961.78;5057695;28;20215;-75
2021/01/09 05:38:44;;;;;;;11.17;10.07;;;;;;;-0.95;89.38;100966.19;5073590;28;20208;-77
2021/01/09 05:41:12;;;;;;;12.30;11.00;;;;;;;-0.99;89.51;100961.75;5057631;28;20235;-76
2021/01/09 05:43:37;;;;;;;13.63;10.33;;;;;;;-0.98;89.25;100965.19;5073136;28;20248;-78
2021/01/09 05:46:05;;;;;;;11.67;10.57;;;;;;;-0.93;89.04;100968.78;5057270;28;20209;-77
2021/01/09 05:48:33;;;;;;;11.77;10.67;;;;;;;-0.95;89.15;100967.84;5078471;28;20224;-78
2021/01/09 05:51:02;;;;;;;11.37;9.97;;;;;;;-0.96;88.86;100972.09;5057868;28;20225;-78
2021/01/09 05:53:41;;;;;;;11.50;10.30;;;;;;;-0.94;89.20;100967.03;5072618;28;20203;-77
2021/01/09 05:56:08;;;;;;;11.63;10.53;;;;;;;-0.92;89.13;100970.53;5054518;28;20219;-77
2021/01/09 05:58:35;;;;;;;10.87;9.80;;;;;;;-0.87;89.15;100977.56;5058851;28;20195;-76
2021/01/09 06:01:05;;;;;;;11.80;10.70;;;;;;;-0.87;89.15;100977.56;5056844;28;20637;-76
2021/01/09 06:03:41;;;;;;;10.77;9.67;;;;;;;-0.86;89.42;100978.44;5072549;28;20299;-77
2021/01/09 06:06:26;;;;;;;11.47;9.77;;;;;;;-0.85;88.96;100980.19;5056581;28;20208;-78
2021/01/09 06:08:57;;;;;;;10.23;9.20;;;;;;;-0.87;89.45;100986.97;5072505;28;20220;-78
2021/01/09 06:11:29;;;;;;;10.87;9.70;;;;;;;-0.88;89.36;100985.19;5047186;28;20201;-78
2021/01/09 06:13:59;;;;;;;11.70;10.50;;;;;;;-0.88;89.59;100988.63;5066384;28;20260;-76
2021/01/09 06:16:26;;;;;;;11.23;10.13;;;;;;;-0.87;89.45;100982.69;5059628;28;20203;-77
2021/01/09 06:18:54;;;;;;;11.67;10.47;;;;;;;-0.85;89.39;100990.47;5071876;28;20766;-76
2021/01/09 06:21:20;;;;;;;10.43;9.37;;;;;;;-0.86;89.35;100989.56;5056718;28;20211;-78
2021/01/09 06:23:46;;;;;;;10.77;9.53;;;;;;;-0.82;88.74;100993.09;5072417;28;20198;-78
2021/01/09 06:26:14;;;;;;;13.27;9.73;;;;;;;-0.80;88.81;100992.34;5051194;28;20281;-78
2021/01/09 06:28:45;;;;;;;10.77;9.77;;;;;;;-0.80;88.41;100997.47;5058901;28;20220;-78
2021/01/09 06:31:18;;;;;;;10.03;9.03;;;;;;;-0.80;89.06;100997.47;5060243;28;20213;-75
2021/01/09 06:33:47;;;;;;;10.70;9.67;;;;;;;-0.80;88.84;101004.28;5072013;28;20233;-78
2021/01/09 06:36:15;;;;;;;10.57;9.30;;;;;;;-0.81;88.97;100997.44;5056199;28;20204;-78
2021/01/09 06:38:41;;;;;;;10.80;9.70;;;;;;;-0.77;88.98;101006.09;5061460;28;20205;-78
2021/01/09 06:41:12;;;;;;;11.20;10.10;;;;;;;-0.80;89.14;101001.72;5053064;28;20753;-77
2021/01/09 06:43:40;;;;;;;10.10;9.10;;;;;;;-0.80;88.43;101001.72;5071656;28;20248;-77
2021/01/09 06:46:07;;;;;;;9.80;8.90;;;;;;;-0.72;88.81;101007.13;5056630;28;20215;-78
2021/01/09 06:48:35;;;;;;;9.80;8.83;;;;;;;-0.72;89.00;101005.44;5071857;28;20265;-77
2021/01/09 06:51:01;;;;;;;10.67;9.67;;;;;;;-0.70;88.77;101005.50;5055362;28;20236;-77
2021/01/09 06:53:28;;;;;;;10.43;9.43;;;;;;;-0.67;88.99;101008.19;5071662;28;20249;-77
2021/01/09 06:55:55;;;;;;;10.27;9.27;;;;;;;-0.67;89.12;101001.34;5055363;28;20215;-77
2021/01/09 06:58:26;;;;;;;9.63;8.73;;;;;;;-0.69;89.04;101013.25;5055881;28;20196;-77
2021/01/09 07:00:52;;;;;;;10.50;9.50;;;;;;;-0.67;89.20;101016.75;5057611;28;20239;-76
2021/01/09 07:03:18;;;;;;;9.97;8.97;;;;;;;-0.66;88.98;101017.59;5044075;28;20208;-78
2021/01/09 07:05:45;;;;;;;10.83;8.97;;;;;;;-0.65;88.85;101017.66;5055052;28;20211;-77
2021/01/09 07:08:18;;;;;;;11.37;10.33;;;;;;;-0.65;88.99;101016.81;5072786;28;20239;-77
2021/01/09 07:10:48;;;;;;;10.97;9.87;;;;;;;-0.66;89.20;101021.03;5058308;28;20239;-76
2021/01/09 07:13:15;;;;;;;10.63;9.53;;;;;;;-0.65;89.56;101024.50;5043485;28;20195;-76
2021/01/09 07:15:40;;;;;;;10.70;9.70;;;;;;;-0.65;89.16;101025.34;5050766;28;20213;-76
2021/01/09 07:18:07;;;;;;;11.30;10.23;;;;;;;-0.66;89.40;101023.59;5070246;28;20691;-76
2021/01/09 07:20:36;;;;;;;11.17;10.07;;;;;;;-0.66;89.18;101026.16;5058614;28;20247;-76
2021/01/09 07:23:05;;;;;;;10.67;9.67;;;;;;;-0.67;89.19;101032.13;5068867;28;20208;-76
2021/01/09 07:25:34;;;;;;;13.57;10.93;;;;;;;-0.69;89.45;101033.75;5057681;28;20204;-77
2021/01/09 07:28:02;;;;;;;11.27;10.07;;;;;;;-0.65;89.38;101032.19;5045914;28;20212;-77
2021/01/09 07:30:30;;;;;;;12.50;10.50;;;;;;;-0.64;89.35;101033.91;5060960;28;20625;-78
2021/01/09 07:32:56;;;;;;;12.57;11.30;;;;;;;-0.65;89.45;101035.59;5068642;28;20207;-77
2021/01/09 07:35:24;;;;;;;12.93;11.63;;;;;;;-0.65;89.34;101048.44;5060623;28;20646;-77
2021/01/09 07:37:54;;;;;;;12.80;11.60;;;;;;;-0.63;89.81;101046.78;5067996;28;20570;-78
2021/01/09 07:40:21;;;;;;;13.47;12.17;;;;;;;-0.60;89.38;101049.44;5061268;28;20220;-77
2021/01/09 07:42:48;;;;;;;13.13;11.87;;;;;;;-0.63;89.82;101046.78;5067583;28;20204;-76
2021/01/09 07:45:17;;;;;;;13.70;12.37;;;;;;;-0.61;89.81;101059.66;5060580;28;20258;-78
2021/01/09 07:47:45;;;;;;;15.23;12.37;;;;;;;-0.55;89.70;101049.63;5067501;28;20215;-77
2021/01/09 07:50:14;;;;;;;13.47;12.07;;;;;;;-0.56;89.67;101054.69;5061965;28;20468;-78
2021/01/09 07:52:40;;;;;;;14.17;12.77;;;;;;;-0.57;89.19;101053.84;5071595;28;20238;-77
2021/01/09 07:55:07;;;;;;;14.50;13.00;;;;;;;-0.52;89.81;101059.13;5059321;28;20239;-76
2021/01/09 07:57:34;;;;;;;16.40;12.60;;;;;;;-0.54;89.65;101065.88;5050835;28;20205;-76
2021/01/09 08:00:07;;;;;;;13.93;12.67;;;;;;;-0.54;89.75;101059.06;5049309;28;20311;-76
2021/01/09 08:02:35;;;;;;;16.00;14.33;;;;;;;-0.51;89.52;101066.88;5056162;28;20207;-78
2021/01/09 08:05:20;;;;;;;16.37;14.67;;;;;;;-0.54;89.48;101065.88;5055793;28;20215;-77
2021/01/09 08:07:49;;;;;;;15.57;13.27;;;;;;;-0.47;89.43;101075.56;5053362;28;20704;-78
2021/01/09 08:10:24;;;;;;;14.50;13.10;;;;;;;-0.47;89.57;101079.00;5055898;28;20223;-78
2021/01/09 08:12:57;;;;;;;14.43;12.93;;;;;;;-0.47;89.44;101080.69;5055350;28;20245;-78
2021/01/09 08:15:24;;;;;;;15.67;14.10;;;;;;;-0.42;89.61;101086.84;5054880;28;20208;-77
2021/01/09 08:17:50;;;;;;;15.87;14.20;;;;;;;-0.40;89.95;101095.47;5053672;28;20199;-78
2021/01/09 08:20:18;;;;;;;15.53;13.87;;;;;;;-0.38;89.59;101095.53;5053495;28;20225;-78
2021/01/09 08:22:57;;;;;;;14.73;13.13;;;;;;;-0.31;89.70;101097.50;5057393;28;20201;-78
2021/01/09 08:25:24;;;;;;;16.87;14.27;;;;;;;-0.30;89.40;101094.97;5051289;28;20211;-77
2021/01/09 08:27:52;;;;;;;14.97;13.57;;;;;;;-0.25;89.78;101106.28;5052417;28;20203;-78
2021/01/09 08:30:21;;;;;;;14.67;13.27;;;;;;;-0.21;89.58;101104.69;5053050;28;20290;-78
2021/01/09 08:32:47;;;;;;;14.60;13.10;;;;;;;-0.25;89.75;101113.97;5054419;28;20273;-77
2021/01/09 08:35:15;;;;;;;14.83;13.30;;;;;;;-0.35;89.65;101109.34;5052680;28;20207;-78
2021/01/09 08:37:41;;;;;;;14.80;13.33;;;;;;;-0.38;89.80;101116.91;5057845;28;20207;-78
2021/01/09 08:40:18;;;;;;;14.90;13.50;;;;;;;-0.32;89.56;101118.81;5057844;28;20220;-78
2021/01/09 08:43:00;;;;;;;15.50;13.90;;;;;;;-0.36;89.81;101115.25;5054804;28;20579;-78
2021/01/09 08:45:50;;;;;;;15.80;14.30;;;;;;;-0.39;89.71;101116.88;5052492;28;20696;-77
2021/01/09 08:48:18;;;;;;;18.80;13.40;;;;;;;-0.36;89.40;101125.53;5034035;28;20196;-76
2021/01/09 08:50:56;;;;;;;13.93;12.43;;;;;;;-0.26;89.62;101127.63;5053706;28;20232;-81
2021/01/09 08:53:22;;;;;;;15.47;14.07;;;;;;;-0.25;89.02;101121.66;5054100;28;20699;-81
2021/01/09 08:55:51;;;;;;;14.33;12.97;;;;;;;-0.29;89.60;101131.78;5053281;28;20203;-84
2021/01/09 08:58:16;;;;;;;15.60;13.03;;;;;;;-0.29;88.82;101132.63;5051546;28;20208;-78
2021/01/09 09:00:43;;;;;;;14.60;13.20;;;;;;;-0.28;89.71;101139.53;5053792;28;20229;-77
2021/01/09 09:03:11;;;;;;;15.33;13.40;;;;;;;-0.27;89.81;101143.81;5054652;28;20570;-78
2021/01/09 09:05:39;;;;;;;15.87;14.30;;;;;;;-0.24;89.38;101136.25;5052369;28;20211;-77
2021/01/09 09:08:09;;;;;;;14.27;12.87;;;;;;;-0.22;89.88;101134.63;5052678;28;20635;-77
2021/01/09 09:10:35;;;;;;;14.17;12.87;;;;;;;-0.22;89.76;101139.75;5053961;28;20228;-76
2021/01/09 09:13:15;;;;;;;16.10;14.60;;;;;;;-0.23;89.77;101143.13;5050723;28;20454;-77
2021/01/09 09:15:41;;;;;;;15.50;13.87;;;;;;;-0.24;89.90;101146.53;5048058;28;20207;-76
2021/01/09 09:18:07;;;;;;;15.07;13.63;;;;;;;-0.25;89.96;101147.31;5053983;28;20667;-77
2021/01/09 09:20:51;;;;;;;13.70;12.37;;;;;;;-0.23;89.89;101149.94;5050905;28;20705;-77
2021/01/09 09:23:25;;;;;;;14.90;13.50;;;;;;;-0.22;90.18;101154.25;5052374;28;20657;-77
2021/01/09 09:26:08;;;;;;;13.67;12.37;;;;;;;-0.21;90.38;101156.00;5050718;28;20208;-77
2021/01/09 09:28:48;;;;;;;15.90;12.57;;;;;;;-0.21;90.33;101153.44;5054292;28;20623;-78
2021/01/09 09:31:20;;;;;;;13.43;12.13;;;;;;;-0.19;89.92;101159.50;5050054;28;20226;-77
2021/01/09 09:34:06;;;;;;;14.63;13.23;;;;;;;-0.17;90.12;101157.88;5052365;28;20205;-77
2021/01/09 09:36:35;;;;;;;15.60;12.93;;;;;;;-0.19;90.53;101156.94;5048055;28;20218;-77
2021/01/09 09:39:17;;;;;;;16.47;13.90;;;;;;;-0.17;90.46;101157.00;5053651;28;20262;-77
2021/01/09 09:41:54;;;;;;;16.63;13.73;;;;;;;-0.16;90.15;101156.16;5052220;28;20204;-76
2021/01/09 09:44:21;;;;;;;15.20;13.80;;;;;;;-0.11;90.22;101150.38;5051361;28;20208;-76
2021/01/09 09:46:49;;;;;;;15.10;13.60;;;;;;;-0.05;90.40;101155.72;5052160;28;20199;-76
2021/01/09 09:49:15;;;;;;;15.77;14.20;;;;;;;-0.13;90.03;101152.03;5051840;28;20236;-76
2021/01/09 09:51:41;;;;;;;14.80;13.40;;;;;;;-0.11;90.22;101147.81;5048589;28;20214;-78
2021/01/09 09:54:07;;;;;;;15.43;13.90;;;;;;;-0.15;90.15;101155.38;5052039;28;20576;-77
2021/01/09 09:56:40;;;;;;;14.30;12.90;;;;;;;-0.14;90.32;101154.53;5049303;28;20214;-77
2021/01/09 09:59:08;;;;;;;16.87;13.13;;;;;;;-0.09;90.65;101156.44;5047268;28;20678;-77
2021/01/09 10:01:34;;;;;;;14.53;13.13;;;;;;;-0.09;91.06;101150.44;5047474;28;20203;-76
2021/01/09 10:04:02;;;;;;;13.87;12.47;;;;;;;-0.08;90.51;101155.66;5050834;28;20208;-78
2021/01/09 10:06:35;;;;;;;15.37;13.87;;;;;;;-0.03;90.76;101153.22;5053279;28;20671;-77
2021/01/09 10:09:17;;;;;;;16.30;12.57;;;;;;;0.07;90.27;101154.44;5054185;28;20628;-77
2021/01/09 10:11:45;;;;;;;14.70;13.30;;;;;;;0.04;90.16;101155.22;5051438;28;20206;-77
2021/01/09 10:14:11;;;;;;;13.77;12.37;;;;;;;0.02;89.84;101155.94;5051671;28;20274;-77
2021/01/09 10:16:40;;;;;;;14.33;12.83;;;;;;;0.11;90.21;101152.00;5050481;28;20739;-77
2021/01/09 10:19:09;;;;;;;15.13;13.63;;;;;;;0.15;89.84;101153.00;5055009;28;20193;-77
2021/01/09 10:21:36;;;;;;;14.27;12.80;;;;;;;0.14;90.04;101153.81;5048505;28;20204;-77
2021/01/09 10:24:02;;;;;;;15.43;13.93;;;;;;;0.26;90.02;101154.25;5050488;28;20203;-77
2021/01/09 10:26:30;;;;;;;14.93;13.37;;;;;;;0.34;89.67;101151.97;5047024;28;20200;-77
2021/01/09 10:28:57;;;;;;;15.10;13.60;;;;;;;0.37;88.86;101155.47;5047055;28;20240;-77
2021/01/09 10:31:31;;;;;;;13.23;12.00;;;;;;;0.15;89.28;101150.44;5050195;28;20213;-76
2021/01/09 10:33:57;;;;;;;15.97;14.27;;;;;;;0.14;89.27;101161.50;5050179;28;20228;-75
2021/01/09 10:39:06;;;;;;;16.63;14.53;;;;;;;0.19;90.77;101152.28;5040663;28;20229;-76
2021/01/09 10:41:32;;;;;;;19.73;15.00;;;;;;;0.29;90.82;101153.47;5050584;28;20216;-75
2021/01/09 10:43:59;;;;;;;15.87;14.20;;;;;;;0.15;90.52;101146.16;5051186;28;20204;-75
2021/01/09 10:46:28;;;;;;;16.10;14.10;;;;;;;0.16;90.77;101144.50;5050395;28;20215;-75
2021/01/09 10:48:54;;;;;;;22.97;15.33;;;;;;;0.30;91.14;101148.41;5051208;28;20759;-76
2021/01/09 10:51:21;;;;;;;15.73;14.13;;;;;;;0.31;90.32;101150.13;5054494;28;20208;-75
2021/01/09 10:53:47;;;;;;;16.33;14.73;;;;;;;0.36;90.33;101148.59;5061668;28;20670;-76
2021/01/09 10:56:13;;;;;;;18.17;14.97;;;;;;;0.35;89.81;101146.84;5049489;28;20204;-77
2021/01/09 10:58:40;;;;;;;21.57;15.07;;;;;;;0.48;90.17;101149.84;5058143;28;20200;-77
2021/01/09 11:01:08;;;;;;;17.20;15.40;;;;;;;0.79;91.26;101151.72;5056178;28;20225;-77
2021/01/09 11:03:34;;;;;;;17.90;15.63;;;;;;;0.61;89.70;101146.84;5071711;28;20207;-75
2021/01/09 11:06:00;;;;;;;15.80;13.87;;;;;;;0.53;89.72;101146.59;5055985;28;20220;-77
2021/01/09 11:08:27;;;;;;;15.77;14.10;;;;;;;0.79;90.25;101149.13;5071506;28;20195;-76
2021/01/09 11:10:54;;;;;;;17.57;14.80;;;;;;;0.78;88.88;101149.97;5059775;28;20706;-76
2021/01/09 11:13:19;;;;;;;13.83;12.40;;;;;;;0.84;88.60;101145.03;5058676;28;20201;-75
2021/01/09 11:15:46;;;;;;;15.07;13.67;;;;;;;0.92;88.55;101142.72;5050798;28;20218;-78
2021/01/09 11:18:13;;;;;;;15.93;14.27;;;;;;;0.97;89.07;101149.75;5043257;28;20762;-77